sensor_id;sensor_type;location;lat;lon;timestamp;P1;durP1;ratioP1;P2;durP2;ratioP2
28627;SDS011;15815;46.760;19.604;2024-01-30T00:01:22;57.22;;;22.15;;
28627;SDS011;15815;46.760;19.604;2024-01-30T00:06:18;51.67;;;20.17;;
28627;SDS011;15815;46.760;19.604;2024-01-30T00:08:44;44.80;;;19.65;;
28627;SDS011;15815;46.760;19.604;2024-01-30T00:11:12;50.10;;;20.23;;
28627;SDS011;15815;46.760;19.604;2024-01-30T00:13:37;51.47;;;21.25;;
28627;SDS011;15815;46.760;19.604;2024-01-30T00:16:03;68.82;;;23.50;;
28627;SDS011;15815;46.760;19.604;2024-01-30T00:18:31;61.25;;;23.77;;
28627;SDS011;15815;46.760;19.604;2024-01-30T00:20:56;67.47;;;25.17;;
28627;SDS011;15815;46.760;19.604;2024-01-30T00:23:21;66.60;;;26.25;;
28627;SDS011;15815;46.760;19.604;2024-01-30T00:25:48;66.47;;;26.10;;
28627;SDS011;15815;46.760;19.604;2024-01-30T00:28:14;63.40;;;26.75;;
28627;SDS011;15815;46.760;19.604;2024-01-30T00:30:39;57.58;;;25.80;;
28627;SDS011;15815;46.760;19.604;2024-01-30T00:33:05;65.28;;;25.55;;
28627;SDS011;15815;46.760;19.604;2024-01-30T00:35:33;72.75;;;25.95;;
28627;SDS011;15815;46.760;19.604;2024-01-30T00:37:59;59.88;;;24.45;;
28627;SDS011;15815;46.760;19.604;2024-01-30T00:40:24;65.03;;;27.60;;
28627;SDS011;15815;46.760;19.604;2024-01-30T00:42:51;64.68;;;26.10;;
28627;SDS011;15815;46.760;19.604;2024-01-30T00:45:16;71.68;;;29.20;;
28627;SDS011;15815;46.760;19.604;2024-01-30T00:47:42;58.72;;;25.42;;
28627;SDS011;15815;46.760;19.604;2024-01-30T00:50:08;68.70;;;29.25;;
28627;SDS011;15815;46.760;19.604;2024-01-30T00:52:34;67.70;;;27.70;;
28627;SDS011;15815;46.760;19.604;2024-01-30T00:55:00;57.80;;;25.73;;
28627;SDS011;15815;46.760;19.604;2024-01-30T00:57:36;73.68;;;26.80;;
28627;SDS011;15815;46.760;19.604;2024-01-30T01:00:02;73.03;;;27.00;;
28627;SDS011;15815;46.760;19.604;2024-01-30T01:02:28;66.75;;;27.27;;
28627;SDS011;15815;46.760;19.604;2024-01-30T01:04:54;63.75;;;26.05;;
28627;SDS011;15815;46.760;19.604;2024-01-30T01:07:19;59.75;;;24.95;;
28627;SDS011;15815;46.760;19.604;2024-01-30T01:09:45;58.10;;;25.52;;
28627;SDS011;15815;46.760;19.604;2024-01-30T01:12:10;72.35;;;24.92;;
28627;SDS011;15815;46.760;19.604;2024-01-30T01:14:36;59.55;;;24.10;;
28627;SDS011;15815;46.760;19.604;2024-01-30T01:17:01;57.45;;;25.67;;
28627;SDS011;15815;46.760;19.604;2024-01-30T01:19:27;51.15;;;23.00;;
28627;SDS011;15815;46.760;19.604;2024-01-30T01:21:52;57.13;;;21.85;;
28627;SDS011;15815;46.760;19.604;2024-01-30T01:24:18;50.45;;;21.45;;
28627;SDS011;15815;46.760;19.604;2024-01-30T01:26:46;43.95;;;18.15;;
28627;SDS011;15815;46.760;19.604;2024-01-30T01:29:11;52.75;;;21.27;;
28627;SDS011;15815;46.760;19.604;2024-01-30T01:31:37;43.50;;;18.88;;
28627;SDS011;15815;46.760;19.604;2024-01-30T01:34:05;49.30;;;20.50;;
28627;SDS011;15815;46.760;19.604;2024-01-30T01:36:31;54.90;;;21.20;;
28627;SDS011;15815;46.760;19.604;2024-01-30T01:38:57;47.25;;;18.85;;
28627;SDS011;15815;46.760;19.604;2024-01-30T01:43:56;35.50;;;17.45;;
28627;SDS011;15815;46.760;19.604;2024-01-30T01:46:22;35.30;;;16.48;;
28627;SDS011;15815;46.760;19.604;2024-01-30T01:48:56;33.97;;;16.52;;
28627;SDS011;15815;46.760;19.604;2024-01-30T01:51:22;40.03;;;17.05;;
28627;SDS011;15815;46.760;19.604;2024-01-30T01:53:49;43.50;;;16.92;;
28627;SDS011;15815;46.760;19.604;2024-01-30T01:56:27;47.00;;;17.77;;
28627;SDS011;15815;46.760;19.604;2024-01-30T01:58:54;42.72;;;16.38;;
28627;SDS011;15815;46.760;19.604;2024-01-30T02:01:20;50.53;;;19.63;;
28627;SDS011;15815;46.760;19.604;2024-01-30T02:03:56;64.93;;;21.08;;
28627;SDS011;15815;46.760;19.604;2024-01-30T02:06:25;52.42;;;19.75;;
28627;SDS011;15815;46.760;19.604;2024-01-30T02:08:51;63.85;;;21.20;;
28627;SDS011;15815;46.760;19.604;2024-01-30T02:11:25;55.75;;;21.25;;
28627;SDS011;15815;46.760;19.604;2024-01-30T02:13:51;60.95;;;23.80;;
28627;SDS011;15815;46.760;19.604;2024-01-30T02:16:17;60.47;;;21.45;;
28627;SDS011;15815;46.760;19.604;2024-01-30T02:21:19;85.70;;;26.17;;
28627;SDS011;15815;46.760;19.604;2024-01-30T02:23:46;73.55;;;24.63;;
28627;SDS011;15815;46.760;19.604;2024-01-30T02:26:12;61.53;;;24.38;;
28627;SDS011;15815;46.760;19.604;2024-01-30T02:28:38;69.97;;;23.92;;
28627;SDS011;15815;46.760;19.604;2024-01-30T02:33:40;69.80;;;23.05;;
28627;SDS011;15815;46.760;19.604;2024-01-30T02:36:05;63.15;;;24.10;;
28627;SDS011;15815;46.760;19.604;2024-01-30T02:41:14;56.05;;;22.33;;
28627;SDS011;15815;46.760;19.604;2024-01-30T02:43:40;54.25;;;20.65;;
28627;SDS011;15815;46.760;19.604;2024-01-30T02:46:05;55.42;;;21.77;;
28627;SDS011;15815;46.760;19.604;2024-01-30T02:48:34;51.13;;;20.95;;
28627;SDS011;15815;46.760;19.604;2024-01-30T02:50:59;53.92;;;21.05;;
28627;SDS011;15815;46.760;19.604;2024-01-30T02:53:25;54.47;;;21.38;;
28627;SDS011;15815;46.760;19.604;2024-01-30T02:55:54;64.07;;;20.38;;
28627;SDS011;15815;46.760;19.604;2024-01-30T02:58:20;55.45;;;22.23;;
28627;SDS011;15815;46.760;19.604;2024-01-30T03:00:45;56.78;;;21.58;;
28627;SDS011;15815;46.760;19.604;2024-01-30T03:03:11;72.78;;;21.65;;
28627;SDS011;15815;46.760;19.604;2024-01-30T03:05:36;67.18;;;22.65;;
28627;SDS011;15815;46.760;19.604;2024-01-30T03:08:03;60.35;;;22.25;;
28627;SDS011;15815;46.760;19.604;2024-01-30T03:10:29;63.05;;;22.50;;
28627;SDS011;15815;46.760;19.604;2024-01-30T03:12:55;64.28;;;23.65;;
28627;SDS011;15815;46.760;19.604;2024-01-30T03:15:20;73.70;;;23.25;;
28627;SDS011;15815;46.760;19.604;2024-01-30T03:17:46;69.43;;;23.20;;
28627;SDS011;15815;46.760;19.604;2024-01-30T03:20:11;66.68;;;23.60;;
28627;SDS011;15815;46.760;19.604;2024-01-30T03:22:39;96.45;;;23.45;;
28627;SDS011;15815;46.760;19.604;2024-01-30T03:25:05;78.13;;;25.17;;
28627;SDS011;15815;46.760;19.604;2024-01-30T03:27:30;67.75;;;25.38;;
28627;SDS011;15815;46.760;19.604;2024-01-30T03:29:56;63.40;;;22.92;;
28627;SDS011;15815;46.760;19.604;2024-01-30T03:32:21;76.30;;;24.80;;
28627;SDS011;15815;46.760;19.604;2024-01-30T03:34:47;67.75;;;24.02;;
28627;SDS011;15815;46.760;19.604;2024-01-30T03:37:26;77.32;;;23.38;;
28627;SDS011;15815;46.760;19.604;2024-01-30T03:39:52;64.93;;;24.55;;
28627;SDS011;15815;46.760;19.604;2024-01-30T03:42:17;72.88;;;24.30;;
28627;SDS011;15815;46.760;19.604;2024-01-30T03:44:51;70.45;;;23.30;;
28627;SDS011;15815;46.760;19.604;2024-01-30T03:47:16;62.85;;;24.27;;
28627;SDS011;15815;46.760;19.604;2024-01-30T03:49:42;50.92;;;23.05;;
28627;SDS011;15815;46.760;19.604;2024-01-30T03:52:07;68.28;;;24.17;;
28627;SDS011;15815;46.760;19.604;2024-01-30T03:54:33;69.75;;;23.95;;
28627;SDS011;15815;46.760;19.604;2024-01-30T03:56:58;55.13;;;22.55;;
28627;SDS011;15815;46.760;19.604;2024-01-30T03:59:25;57.47;;;22.25;;
28627;SDS011;15815;46.760;19.604;2024-01-30T04:01:50;45.28;;;19.60;;
28627;SDS011;15815;46.760;19.604;2024-01-30T04:04:17;45.00;;;18.73;;
28627;SDS011;15815;46.760;19.604;2024-01-30T04:06:54;41.67;;;18.17;;
28627;SDS011;15815;46.760;19.604;2024-01-30T04:09:19;44.80;;;17.65;;
28627;SDS011;15815;46.760;19.604;2024-01-30T04:11:47;50.53;;;19.63;;
28627;SDS011;15815;46.760;19.604;2024-01-30T04:14:12;49.33;;;19.23;;
28627;SDS011;15815;46.760;19.604;2024-01-30T04:19:06;46.85;;;19.35;;
28627;SDS011;15815;46.760;19.604;2024-01-30T04:21:32;43.65;;;19.45;;
28627;SDS011;15815;46.760;19.604;2024-01-30T04:23:57;43.72;;;18.90;;
28627;SDS011;15815;46.760;19.604;2024-01-30T04:26:23;44.22;;;19.70;;
28627;SDS011;15815;46.760;19.604;2024-01-30T04:28:48;48.70;;;20.23;;
28627;SDS011;15815;46.760;19.604;2024-01-30T04:31:24;46.20;;;18.58;;
28627;SDS011;15815;46.760;19.604;2024-01-30T04:36:30;56.95;;;19.55;;
28627;SDS011;15815;46.760;19.604;2024-01-30T04:38:55;50.92;;;18.88;;
28627;SDS011;15815;46.760;19.604;2024-01-30T04:41:22;50.85;;;20.02;;
28627;SDS011;15815;46.760;19.604;2024-01-30T04:43:47;56.95;;;22.33;;
28627;SDS011;15815;46.760;19.604;2024-01-30T04:46:13;69.60;;;24.10;;
28627;SDS011;15815;46.760;19.604;2024-01-30T04:48:38;51.42;;;20.48;;
28627;SDS011;15815;46.760;19.604;2024-01-30T04:51:04;64.13;;;22.23;;
28627;SDS011;15815;46.760;19.604;2024-01-30T04:53:30;55.20;;;21.92;;
28627;SDS011;15815;46.760;19.604;2024-01-30T04:55:55;62.88;;;22.80;;
28627;SDS011;15815;46.760;19.604;2024-01-30T04:58:21;60.55;;;22.75;;
28627;SDS011;15815;46.760;19.604;2024-01-30T05:00:46;69.70;;;22.83;;
28627;SDS011;15815;46.760;19.604;2024-01-30T05:03:12;92.63;;;27.15;;
28627;SDS011;15815;46.760;19.604;2024-01-30T05:05:37;89.32;;;27.35;;
28627;SDS011;15815;46.760;19.604;2024-01-30T05:08:04;127.50;;;32.88;;
28627;SDS011;15815;46.760;19.604;2024-01-30T05:10:30;104.90;;;34.13;;
28627;SDS011;15815;46.760;19.604;2024-01-30T05:12:55;83.72;;;26.58;;
28627;SDS011;15815;46.760;19.604;2024-01-30T05:15:21;84.57;;;27.40;;
28627;SDS011;15815;46.760;19.604;2024-01-30T05:17:46;88.05;;;26.73;;
28627;SDS011;15815;46.760;19.604;2024-01-30T05:20:12;88.28;;;25.95;;
28627;SDS011;15815;46.760;19.604;2024-01-30T05:22:37;83.72;;;27.00;;
28627;SDS011;15815;46.760;19.604;2024-01-30T05:25:04;82.22;;;26.88;;
28627;SDS011;15815;46.760;19.604;2024-01-30T05:27:30;73.03;;;24.55;;
28627;SDS011;15815;46.760;19.604;2024-01-30T05:29:55;66.78;;;24.48;;
28627;SDS011;15815;46.760;19.604;2024-01-30T05:32:22;59.50;;;24.40;;
28627;SDS011;15815;46.760;19.604;2024-01-30T05:34:47;71.07;;;28.30;;
28627;SDS011;15815;46.760;19.604;2024-01-30T05:37:13;63.53;;;26.10;;
28627;SDS011;15815;46.760;19.604;2024-01-30T05:39:38;92.45;;;31.95;;
28627;SDS011;15815;46.760;19.604;2024-01-30T05:42:04;89.43;;;28.55;;
28627;SDS011;15815;46.760;19.604;2024-01-30T05:44:32;88.13;;;30.88;;
28627;SDS011;15815;46.760;19.604;2024-01-30T05:46:59;89.65;;;30.90;;
28627;SDS011;15815;46.760;19.604;2024-01-30T05:49:24;92.78;;;28.08;;
28627;SDS011;15815;46.760;19.604;2024-01-30T05:51:50;65.00;;;25.40;;
28627;SDS011;15815;46.760;19.604;2024-01-30T05:54:15;68.43;;;24.80;;
28627;SDS011;15815;46.760;19.604;2024-01-30T05:56:41;64.60;;;24.98;;
28627;SDS011;15815;46.760;19.604;2024-01-30T05:59:06;93.35;;;30.40;;
28627;SDS011;15815;46.760;19.604;2024-01-30T06:01:32;88.55;;;32.70;;
28627;SDS011;15815;46.760;19.604;2024-01-30T06:03:57;76.40;;;25.58;;
28627;SDS011;15815;46.760;19.604;2024-01-30T06:06:23;61.08;;;24.23;;
28627;SDS011;15815;46.760;19.604;2024-01-30T06:08:51;59.22;;;24.75;;
28627;SDS011;15815;46.760;19.604;2024-01-30T06:11:16;78.22;;;30.75;;
28627;SDS011;15815;46.760;19.604;2024-01-30T06:13:42;74.03;;;28.55;;
28627;SDS011;15815;46.760;19.604;2024-01-30T06:19:02;107.00;;;33.05;;
28627;SDS011;15815;46.760;19.604;2024-01-30T06:21:27;71.18;;;28.40;;
28627;SDS011;15815;46.760;19.604;2024-01-30T06:23:53;76.47;;;27.88;;
28627;SDS011;15815;46.760;19.604;2024-01-30T06:26:18;85.70;;;35.50;;
28627;SDS011;15815;46.760;19.604;2024-01-30T06:28:44;93.65;;;32.53;;
28627;SDS011;15815;46.760;19.604;2024-01-30T06:31:10;106.93;;;35.80;;
28627;SDS011;15815;46.760;19.604;2024-01-30T06:33:35;118.50;;;36.00;;
28627;SDS011;15815;46.760;19.604;2024-01-30T06:36:03;97.13;;;33.63;;
28627;SDS011;15815;46.760;19.604;2024-01-30T06:38:28;95.05;;;31.42;;
28627;SDS011;15815;46.760;19.604;2024-01-30T06:41:06;95.28;;;33.75;;
28627;SDS011;15815;46.760;19.604;2024-01-30T06:43:32;75.47;;;27.02;;
28627;SDS011;15815;46.760;19.604;2024-01-30T06:46:01;70.70;;;29.23;;
28627;SDS011;15815;46.760;19.604;2024-01-30T06:48:26;82.22;;;28.83;;
28627;SDS011;15815;46.760;19.604;2024-01-30T06:51:09;65.22;;;25.83;;
28627;SDS011;15815;46.760;19.604;2024-01-30T06:53:34;69.35;;;22.58;;
28627;SDS011;15815;46.760;19.604;2024-01-30T06:56:07;63.53;;;23.13;;
28627;SDS011;15815;46.760;19.604;2024-01-30T06:58:33;67.95;;;26.13;;
28627;SDS011;15815;46.760;19.604;2024-01-30T07:01:08;68.38;;;22.90;;
28627;SDS011;15815;46.760;19.604;2024-01-30T07:03:36;74.15;;;24.02;;
28627;SDS011;15815;46.760;19.604;2024-01-30T07:06:04;61.67;;;24.15;;
28627;SDS011;15815;46.760;19.604;2024-01-30T07:08:30;89.13;;;26.63;;
28627;SDS011;15815;46.760;19.604;2024-01-30T07:10:55;71.05;;;29.60;;
28627;SDS011;15815;46.760;19.604;2024-01-30T07:13:21;64.70;;;27.38;;
28627;SDS011;15815;46.760;19.604;2024-01-30T07:15:46;78.00;;;31.83;;
28627;SDS011;15815;46.760;19.604;2024-01-30T07:18:12;73.93;;;27.45;;
28627;SDS011;15815;46.760;19.604;2024-01-30T07:20:37;72.97;;;24.45;;
28627;SDS011;15815;46.760;19.604;2024-01-30T07:23:03;74.57;;;25.30;;
28627;SDS011;15815;46.760;19.604;2024-01-30T07:25:28;83.72;;;25.50;;
28627;SDS011;15815;46.760;19.604;2024-01-30T07:27:54;65.53;;;23.90;;
28627;SDS011;15815;46.760;19.604;2024-01-30T07:33:23;62.38;;;22.60;;
28627;SDS011;15815;46.760;19.604;2024-01-30T07:35:48;60.80;;;23.33;;
28627;SDS011;15815;46.760;19.604;2024-01-30T07:38:14;75.65;;;26.77;;
28627;SDS011;15815;46.760;19.604;2024-01-30T07:40:40;68.47;;;26.45;;
28627;SDS011;15815;46.760;19.604;2024-01-30T07:43:06;67.72;;;23.70;;
28627;SDS011;15815;46.760;19.604;2024-01-30T07:45:32;64.43;;;24.02;;
28627;SDS011;15815;46.760;19.604;2024-01-30T07:47:57;51.92;;;21.38;;
28627;SDS011;15815;46.760;19.604;2024-01-30T07:50:24;60.60;;;23.88;;
28627;SDS011;15815;46.760;19.604;2024-01-30T07:52:49;68.13;;;22.60;;
28627;SDS011;15815;46.760;19.604;2024-01-30T07:55:15;67.20;;;22.63;;
28627;SDS011;15815;46.760;19.604;2024-01-30T08:00:35;111.38;;;37.10;;
28627;SDS011;15815;46.760;19.604;2024-01-30T08:03:00;86.28;;;33.83;;
28627;SDS011;15815;46.760;19.604;2024-01-30T08:05:26;127.80;;;45.47;;
28627;SDS011;15815;46.760;19.604;2024-01-30T08:07:52;77.35;;;33.95;;
28627;SDS011;15815;46.760;19.604;2024-01-30T08:10:17;77.63;;;28.48;;
28627;SDS011;15815;46.760;19.604;2024-01-30T08:12:43;66.43;;;24.35;;
28627;SDS011;15815;46.760;19.604;2024-01-30T08:15:08;48.33;;;24.77;;
28627;SDS011;15815;46.760;19.604;2024-01-30T08:17:34;53.67;;;25.75;;
28627;SDS011;15815;46.760;19.604;2024-01-30T08:22:33;67.43;;;26.90;;
28627;SDS011;15815;46.760;19.604;2024-01-30T08:25:03;67.90;;;27.88;;
28627;SDS011;15815;46.760;19.604;2024-01-30T08:27:29;51.08;;;20.52;;
28627;SDS011;15815;46.760;19.604;2024-01-30T08:29:54;51.90;;;22.42;;
28627;SDS011;15815;46.760;19.604;2024-01-30T08:32:20;56.05;;;22.73;;
28627;SDS011;15815;46.760;19.604;2024-01-30T08:34:45;45.45;;;22.75;;
28627;SDS011;15815;46.760;19.604;2024-01-30T08:37:11;52.22;;;22.50;;
28627;SDS011;15815;46.760;19.604;2024-01-30T08:39:37;48.13;;;21.42;;
28627;SDS011;15815;46.760;19.604;2024-01-30T08:42:07;44.22;;;22.30;;
28627;SDS011;15815;46.760;19.604;2024-01-30T08:44:32;50.85;;;24.45;;
28627;SDS011;15815;46.760;19.604;2024-01-30T08:46:58;57.95;;;25.52;;
28627;SDS011;15815;46.760;19.604;2024-01-30T08:49:37;49.65;;;21.13;;
28627;SDS011;15815;46.760;19.604;2024-01-30T08:52:03;56.58;;;22.75;;
28627;SDS011;15815;46.760;19.604;2024-01-30T08:54:28;57.90;;;23.23;;
28627;SDS011;15815;46.760;19.604;2024-01-30T08:59:38;62.03;;;25.25;;
28627;SDS011;15815;46.760;19.604;2024-01-30T09:02:04;58.70;;;25.30;;
28627;SDS011;15815;46.760;19.604;2024-01-30T09:04:30;59.75;;;24.70;;
28627;SDS011;15815;46.760;19.604;2024-01-30T09:06:56;66.78;;;27.23;;
28627;SDS011;15815;46.760;19.604;2024-01-30T09:09:21;56.45;;;23.45;;
28627;SDS011;15815;46.760;19.604;2024-01-30T09:11:52;67.90;;;27.58;;
28627;SDS011;15815;46.760;19.604;2024-01-30T09:14:17;62.97;;;26.07;;
28627;SDS011;15815;46.760;19.604;2024-01-30T09:16:43;47.85;;;21.40;;
28627;SDS011;15815;46.760;19.604;2024-01-30T09:19:08;57.47;;;23.98;;
28627;SDS011;15815;46.760;19.604;2024-01-30T09:21:34;47.97;;;22.17;;
28627;SDS011;15815;46.760;19.604;2024-01-30T09:24:14;54.60;;;23.48;;
28627;SDS011;15815;46.760;19.604;2024-01-30T09:26:39;51.72;;;22.88;;
28627;SDS011;15815;46.760;19.604;2024-01-30T09:29:05;43.42;;;20.13;;
28627;SDS011;15815;46.760;19.604;2024-01-30T09:31:34;42.95;;;19.23;;
28627;SDS011;15815;46.760;19.604;2024-01-30T09:34:00;41.67;;;20.27;;
28627;SDS011;15815;46.760;19.604;2024-01-30T09:36:25;41.70;;;19.08;;
28627;SDS011;15815;46.760;19.604;2024-01-30T09:38:57;32.63;;;16.52;;
28627;SDS011;15815;46.760;19.604;2024-01-30T09:41:23;39.40;;;18.85;;
28627;SDS011;15815;46.760;19.604;2024-01-30T09:43:50;34.90;;;18.23;;
28627;SDS011;15815;46.760;19.604;2024-01-30T09:46:23;33.25;;;16.80;;
28627;SDS011;15815;46.760;19.604;2024-01-30T09:48:52;34.35;;;17.20;;
28627;SDS011;15815;46.760;19.604;2024-01-30T09:51:18;31.67;;;16.17;;
28627;SDS011;15815;46.760;19.604;2024-01-30T09:53:52;31.02;;;14.52;;
28627;SDS011;15815;46.760;19.604;2024-01-30T09:56:20;30.40;;;15.13;;
28627;SDS011;15815;46.760;19.604;2024-01-30T09:58:46;26.27;;;14.23;;
28627;SDS011;15815;46.760;19.604;2024-01-30T10:01:12;26.15;;;13.68;;
28627;SDS011;15815;46.760;19.604;2024-01-30T10:03:38;28.40;;;14.23;;
28627;SDS011;15815;46.760;19.604;2024-01-30T10:06:04;24.33;;;13.07;;
28627;SDS011;15815;46.760;19.604;2024-01-30T10:08:30;23.60;;;13.90;;
28627;SDS011;15815;46.760;19.604;2024-01-30T10:10:59;29.02;;;14.70;;
28627;SDS011;15815;46.760;19.604;2024-01-30T10:13:25;28.10;;;15.43;;
28627;SDS011;15815;46.760;19.604;2024-01-30T10:18:27;29.27;;;15.30;;
28627;SDS011;15815;46.760;19.604;2024-01-30T10:20:53;32.78;;;16.30;;
28627;SDS011;15815;46.760;19.604;2024-01-30T10:23:18;34.40;;;17.50;;
28627;SDS011;15815;46.760;19.604;2024-01-30T10:25:44;36.17;;;18.83;;
28627;SDS011;15815;46.760;19.604;2024-01-30T10:28:10;30.45;;;16.48;;
28627;SDS011;15815;46.760;19.604;2024-01-30T10:30:35;47.67;;;23.90;;
28627;SDS011;15815;46.760;19.604;2024-01-30T10:33:04;25.60;;;13.95;;
28627;SDS011;15815;46.760;19.604;2024-01-30T10:35:30;42.28;;;19.83;;
28627;SDS011;15815;46.760;19.604;2024-01-30T10:37:56;28.80;;;14.95;;
28627;SDS011;15815;46.760;19.604;2024-01-30T10:40:22;24.38;;;14.93;;
28627;SDS011;15815;46.760;19.604;2024-01-30T10:42:52;28.25;;;15.05;;
28627;SDS011;15815;46.760;19.604;2024-01-30T10:45:18;29.88;;;16.50;;
28627;SDS011;15815;46.760;19.604;2024-01-30T10:47:57;23.15;;;13.98;;
28627;SDS011;15815;46.760;19.604;2024-01-30T10:50:24;25.77;;;14.63;;
28627;SDS011;15815;46.760;19.604;2024-01-30T10:52:50;26.50;;;14.40;;
28627;SDS011;15815;46.760;19.604;2024-01-30T10:55:16;29.70;;;16.73;;
28627;SDS011;15815;46.760;19.604;2024-01-30T10:57:43;29.73;;;16.35;;
28627;SDS011;15815;46.760;19.604;2024-01-30T11:00:13;30.80;;;16.33;;
28627;SDS011;15815;46.760;19.604;2024-01-30T11:02:40;22.75;;;13.05;;
28627;SDS011;15815;46.760;19.604;2024-01-30T11:05:10;22.23;;;12.60;;
28627;SDS011;15815;46.760;19.604;2024-01-30T11:07:35;24.73;;;14.15;;
28627;SDS011;15815;46.760;19.604;2024-01-30T11:10:03;21.15;;;13.00;;
28627;SDS011;15815;46.760;19.604;2024-01-30T11:12:45;21.02;;;12.43;;
28627;SDS011;15815;46.760;19.604;2024-01-30T11:15:15;27.30;;;15.45;;
28627;SDS011;15815;46.760;19.604;2024-01-30T11:20:19;17.95;;;11.23;;
28627;SDS011;15815;46.760;19.604;2024-01-30T11:22:48;18.77;;;11.27;;
28627;SDS011;15815;46.760;19.604;2024-01-30T11:25:15;22.15;;;12.10;;
28627;SDS011;15815;46.760;19.604;2024-01-30T11:27:42;18.88;;;11.27;;
28627;SDS011;15815;46.760;19.604;2024-01-30T11:30:08;18.85;;;11.00;;
28627;SDS011;15815;46.760;19.604;2024-01-30T11:32:34;16.05;;;10.32;;
28627;SDS011;15815;46.760;19.604;2024-01-30T11:35:00;22.17;;;11.65;;
28627;SDS011;15815;46.760;19.604;2024-01-30T11:37:28;16.73;;;10.32;;
28627;SDS011;15815;46.760;19.604;2024-01-30T11:39:56;20.55;;;11.25;;
28627;SDS011;15815;46.760;19.604;2024-01-30T11:42:23;18.55;;;9.70;;
28627;SDS011;15815;46.760;19.604;2024-01-30T11:44:49;18.23;;;9.98;;
28627;SDS011;15815;46.760;19.604;2024-01-30T11:47:14;16.95;;;10.02;;
28627;SDS011;15815;46.760;19.604;2024-01-30T11:49:41;14.13;;;8.85;;
28627;SDS011;15815;46.760;19.604;2024-01-30T11:54:50;17.20;;;10.05;;
28627;SDS011;15815;46.760;19.604;2024-01-30T11:57:15;13.52;;;9.05;;
28627;SDS011;15815;46.760;19.604;2024-01-30T11:59:41;18.65;;;10.35;;
28627;SDS011;15815;46.760;19.604;2024-01-30T12:02:06;15.93;;;8.95;;
28627;SDS011;15815;46.760;19.604;2024-01-30T12:04:32;18.23;;;10.45;;
28627;SDS011;15815;46.760;19.604;2024-01-30T12:07:08;13.15;;;8.75;;
28627;SDS011;15815;46.760;19.604;2024-01-30T12:09:34;15.85;;;9.13;;
28627;SDS011;15815;46.760;19.604;2024-01-30T12:15:07;14.38;;;9.70;;
28627;SDS011;15815;46.760;19.604;2024-01-30T12:17:34;13.70;;;8.23;;
28627;SDS011;15815;46.760;19.604;2024-01-30T12:20:07;14.77;;;9.05;;
28627;SDS011;15815;46.760;19.604;2024-01-30T12:22:33;14.15;;;7.40;;
28627;SDS011;15815;46.760;19.604;2024-01-30T12:25:01;12.40;;;7.65;;
28627;SDS011;15815;46.760;19.604;2024-01-30T12:27:29;13.60;;;7.90;;
28627;SDS011;15815;46.760;19.604;2024-01-30T12:30:00;13.10;;;8.27;;
28627;SDS011;15815;46.760;19.604;2024-01-30T12:32:27;15.25;;;7.90;;
28627;SDS011;15815;46.760;19.604;2024-01-30T12:34:56;13.60;;;8.25;;
28627;SDS011;15815;46.760;19.604;2024-01-30T12:40:10;20.05;;;9.52;;
28627;SDS011;15815;46.760;19.604;2024-01-30T12:42:36;14.20;;;8.70;;
28627;SDS011;15815;46.760;19.604;2024-01-30T12:45:05;12.60;;;7.35;;
28627;SDS011;15815;46.760;19.604;2024-01-30T12:47:31;14.18;;;8.25;;
28627;SDS011;15815;46.760;19.604;2024-01-30T12:49:58;13.85;;;7.53;;
28627;SDS011;15815;46.760;19.604;2024-01-30T12:52:24;15.38;;;8.02;;
28627;SDS011;15815;46.760;19.604;2024-01-30T12:54:50;13.77;;;7.50;;
28627;SDS011;15815;46.760;19.604;2024-01-30T12:57:16;11.98;;;7.25;;
28627;SDS011;15815;46.760;19.604;2024-01-30T12:59:42;18.23;;;11.77;;
28627;SDS011;15815;46.760;19.604;2024-01-30T13:02:09;11.10;;;7.40;;
28627;SDS011;15815;46.760;19.604;2024-01-30T13:04:35;11.13;;;6.90;;
28627;SDS011;15815;46.760;19.604;2024-01-30T13:07:01;10.63;;;6.88;;
28627;SDS011;15815;46.760;19.604;2024-01-30T13:09:26;12.50;;;7.80;;
28627;SDS011;15815;46.760;19.604;2024-01-30T13:11:52;14.50;;;7.05;;
28627;SDS011;15815;46.760;19.604;2024-01-30T13:14:18;13.52;;;8.18;;
28627;SDS011;15815;46.760;19.604;2024-01-30T13:16:44;13.38;;;7.43;;
28627;SDS011;15815;46.760;19.604;2024-01-30T13:19:10;14.40;;;7.78;;
28627;SDS011;15815;46.760;19.604;2024-01-30T13:24:24;29.08;;;11.18;;
28627;SDS011;15815;46.760;19.604;2024-01-30T13:26:49;26.77;;;13.27;;
28627;SDS011;15815;46.760;19.604;2024-01-30T13:29:15;20.95;;;10.52;;
28627;SDS011;15815;46.760;19.604;2024-01-30T13:31:41;15.45;;;9.27;;
28627;SDS011;15815;46.760;19.604;2024-01-30T13:34:08;17.50;;;10.38;;
28627;SDS011;15815;46.760;19.604;2024-01-30T13:36:34;20.00;;;10.77;;
28627;SDS011;15815;46.760;19.604;2024-01-30T13:38:59;14.60;;;8.88;;
28627;SDS011;15815;46.760;19.604;2024-01-30T13:43:55;12.32;;;8.13;;
28627;SDS011;15815;46.760;19.604;2024-01-30T13:46:21;21.88;;;9.82;;
28627;SDS011;15815;46.760;19.604;2024-01-30T13:48:46;10.57;;;7.20;;
28627;SDS011;15815;46.760;19.604;2024-01-30T13:51:12;13.18;;;7.45;;
28627;SDS011;15815;46.760;19.604;2024-01-30T13:53:37;14.00;;;8.00;;
28627;SDS011;15815;46.760;19.604;2024-01-30T13:56:03;16.80;;;10.07;;
28627;SDS011;15815;46.760;19.604;2024-01-30T13:58:29;27.92;;;13.45;;
28627;SDS011;15815;46.760;19.604;2024-01-30T14:00:54;14.85;;;9.13;;
28627;SDS011;15815;46.760;19.604;2024-01-30T14:03:24;14.38;;;7.68;;
28627;SDS011;15815;46.760;19.604;2024-01-30T14:05:49;18.65;;;8.43;;
28627;SDS011;15815;46.760;19.604;2024-01-30T14:08:15;19.33;;;8.50;;
28627;SDS011;15815;46.760;19.604;2024-01-30T14:10:41;14.52;;;7.68;;
28627;SDS011;15815;46.760;19.604;2024-01-30T14:13:06;15.18;;;8.30;;
28627;SDS011;15815;46.760;19.604;2024-01-30T14:15:32;16.98;;;7.93;;
28627;SDS011;15815;46.760;19.604;2024-01-30T14:17:57;46.10;;;16.95;;
28627;SDS011;15815;46.760;19.604;2024-01-30T14:20:23;22.00;;;10.07;;
28627;SDS011;15815;46.760;19.604;2024-01-30T14:22:49;14.00;;;7.10;;
28627;SDS011;15815;46.760;19.604;2024-01-30T14:25:14;16.95;;;8.25;;
28627;SDS011;15815;46.760;19.604;2024-01-30T14:27:40;11.18;;;6.90;;
28627;SDS011;15815;46.760;19.604;2024-01-30T14:30:05;17.35;;;7.35;;
28627;SDS011;15815;46.760;19.604;2024-01-30T14:32:31;23.50;;;10.52;;
28627;SDS011;15815;46.760;19.604;2024-01-30T14:34:57;29.23;;;12.80;;
28627;SDS011;15815;46.760;19.604;2024-01-30T14:37:37;10.57;;;5.97;;
28627;SDS011;15815;46.760;19.604;2024-01-30T14:40:03;18.67;;;9.57;;
28627;SDS011;15815;46.760;19.604;2024-01-30T14:42:29;14.93;;;7.22;;
28627;SDS011;15815;46.760;19.604;2024-01-30T14:44:54;27.30;;;13.07;;
28627;SDS011;15815;46.760;19.604;2024-01-30T14:47:20;17.60;;;8.95;;
28627;SDS011;15815;46.760;19.604;2024-01-30T14:49:45;19.20;;;8.95;;
28627;SDS011;15815;46.760;19.604;2024-01-30T14:52:13;19.67;;;10.23;;
28627;SDS011;15815;46.760;19.604;2024-01-30T14:54:38;19.95;;;9.25;;
28627;SDS011;15815;46.760;19.604;2024-01-30T14:57:04;26.05;;;11.38;;
28627;SDS011;15815;46.760;19.604;2024-01-30T14:59:32;13.02;;;7.32;;